Roma, Italia

09:28 AM CET del 23 novembre 2014 (GMT +0100)
Roma Ardeatina - Appia Antica Caffarella | Change Station
CLOSE
Current Station
Stazione meteo personale
Location: Rome, Lazio
Altitudine: 140 ft
Stazioni meteo nelle vicinanze

Alt. 140 ft 41.86 °N, 12.50 °E | Updated 1 second ago

Coperto
Coperto
55.2 °F
Sembra 55.2 °F
N
0.0
Vento Variabile Vento da Nord
Gusts 0.0 mph

Oggi
Massima -- | Minima -- °F
--% Possibilità di precip.
Ieri
Massima -- | Minima -- °F
Precip. -- in
7:09 AM 4:43 PM
Luna nuova, 1% visible
Pressione 30.30 in
Visibilità 4.3 miglia
Nuvole Nubi sparse 2300 ft
Nubi sparse 8000 ft
Punto di rugiada 48 °F
Umidità 76%
Piovosità 0.00 in
Spessore del manto nevoso Non disponibile.
Raggi UV 1 fuori da 12
Polline Non disponibile.
Qualità dell'aria Non disponibile.
Flu Activity Non disponibile.
METAR LIRA 230815Z 00000KT 7000 -RA SCT023 SCT080 12/11 Q1026

More Conditions Fewer Conditions

Pressione 30.30 in
Visibilità 4.3 miglia
Nuvole Nubi sparse 2300 ft
Nubi sparse 8000 ft
Punto di rugiada 48 °F
Umidità 76%
Piovosità 0.00 in
Spessore del manto nevoso Non disponibile.
Raggi UV 1 fuori da 12
Polline Non disponibile.
Qualità dell'aria Non disponibile.
Flu Activity Non disponibile.
METAR LIRA 230815Z 00000KT 7000 -RA SCT023 SCT080 12/11 Q1026

More Conditions Fewer Conditions

10-Day Weather Forecast

Almanac

Astronomia

Nov. 23, 2014 Alba Tramonto
Ora attuale
Crepuscolo civile
Crepuscolo nautico
Crepuscolo astronomico
Luna
Estensione della luce visibile
Lunghezza del giorno
Tomorrow will be .
, % of the Moon is Illuminated

Gli estremi di oggi

Massime Regione Minime Regione

Community

WunderPhotos

Upload Photos

1,773,024 foto caricate!

WunderBlogs® & News

Nearby

Qualità dell'aria

  Qualità dell'aria Indice AQ Inquinante
Not available.

Profondità neve

Stazione Profondità Altitudine

Attività sismica

Città  Distanza Mag. Data & Ora
Minimo Magnitudo Mostrato è 2.5.

Temperature delle acque costiere

Località Temperatura

Stazioni meteo nelle vicinanze